createdAt,value
2018-05-16T00:01:29.266Z,16.00
2018-05-16T00:03:57.188Z,15.96
2018-05-16T00:06:25.205Z,15.87
2018-05-16T00:08:53.176Z,15.89
2018-05-16T00:11:21.132Z,15.87
2018-05-16T00:13:49.145Z,15.89
2018-05-16T00:16:17.487Z,15.90
2018-05-16T00:18:45.414Z,15.97
2018-05-16T00:21:13.516Z,15.91
2018-05-16T00:23:42.423Z,15.89
2018-05-16T00:26:10.588Z,15.84
2018-05-16T00:28:38.524Z,15.96
2018-05-16T00:31:06.493Z,16.02
2018-05-16T00:33:34.597Z,15.84
2018-05-16T00:36:02.549Z,15.97
2018-05-16T00:38:30.474Z,16.03
2018-05-16T00:40:58.392Z,15.91
2018-05-16T00:43:26.331Z,15.98
2018-05-16T00:45:54.239Z,16.28
2018-05-16T00:48:22.169Z,16.19
2018-05-16T00:51:01.938Z,16.02
2018-05-16T00:53:29.905Z,16.04
2018-05-16T00:55:57.822Z,15.85
2018-05-16T00:58:25.771Z,15.89
2018-05-16T01:00:53.680Z,15.68
2018-05-16T01:03:21.637Z,15.71
2018-05-16T01:05:49.678Z,15.73
2018-05-16T01:08:17.744Z,15.66
2018-05-16T01:10:45.789Z,15.73
2018-05-16T01:13:13.898Z,15.62
2018-05-16T01:15:41.824Z,15.72
2018-05-16T01:18:09.737Z,15.85
2018-05-16T01:20:37.646Z,15.76
2018-05-16T01:23:05.582Z,15.68
2018-05-16T01:25:33.513Z,15.70
2018-05-16T01:28:01.461Z,15.84
2018-05-16T01:30:29.400Z,15.82
2018-05-16T01:32:57.362Z,15.73
2018-05-16T01:35:25.305Z,15.77
2018-05-16T01:37:53.237Z,15.73
2018-05-16T01:40:21.156Z,15.76
2018-05-16T01:42:49.088Z,15.76
2018-05-16T01:45:17.012Z,15.78
2018-05-16T01:47:44.923Z,15.84
2018-05-16T01:50:12.874Z,15.77
2018-05-16T01:52:40.822Z,15.66
2018-05-16T01:55:08.762Z,15.67
2018-05-16T01:57:36.674Z,15.62
2018-05-16T02:00:04.605Z,15.70
2018-05-16T02:02:32.530Z,15.73
2018-05-16T02:05:00.469Z,15.53
2018-05-16T02:07:28.385Z,15.62
2018-05-16T02:09:56.335Z,15.60
2018-05-16T02:12:24.258Z,15.60
2018-05-16T02:14:52.171Z,15.45
2018-05-16T02:17:20.101Z,15.51
2018-05-16T02:19:48.041Z,15.46
2018-05-16T02:22:15.980Z,15.52
2018-05-16T02:24:43.944Z,15.54
2018-05-16T02:27:11.859Z,15.51
2018-05-16T02:29:39.767Z,15.43
2018-05-16T02:32:07.699Z,15.45
2018-05-16T02:34:35.604Z,15.47
2018-05-16T02:37:03.552Z,15.55
2018-05-16T02:39:31.470Z,15.52
2018-05-16T02:41:59.499Z,15.37
2018-05-16T02:44:27.401Z,15.40
2018-05-16T02:46:55.368Z,15.36
2018-05-16T02:49:23.284Z,15.34
2018-05-16T02:51:51.202Z,15.22
2018-05-16T02:54:19.237Z,15.26
2018-05-16T02:56:47.046Z,15.15
2018-05-16T02:59:14.971Z,15.22
2018-05-16T03:01:42.879Z,15.09
2018-05-16T03:04:10.825Z,15.09
2018-05-16T03:06:38.747Z,15.11
2018-05-16T03:09:06.690Z,15.03
2018-05-16T03:11:34.593Z,15.04
2018-05-16T03:14:02.553Z,14.86
2018-05-16T03:16:30.479Z,14.89
2018-05-16T03:18:58.419Z,14.92
2018-05-16T03:21:26.351Z,15.07
2018-05-16T03:23:54.358Z,15.09
2018-05-16T03:26:22.251Z,15.21
2018-05-16T03:28:50.189Z,15.16
2018-05-16T03:31:18.135Z,15.21
2018-05-16T03:33:46.072Z,15.17
2018-05-16T03:36:13.986Z,15.34
2018-05-16T03:38:41.908Z,15.39
2018-05-16T03:41:09.820Z,15.29
2018-05-16T03:43:37.847Z,15.28
2018-05-16T03:46:05.749Z,15.61
2018-05-16T03:48:33.683Z,15.77
2018-05-16T03:51:01.625Z,15.58
2018-05-16T03:53:29.539Z,15.45
2018-05-16T03:55:57.509Z,15.44
2018-05-16T03:58:37.290Z,15.31
2018-05-16T04:01:17.470Z,15.34
2018-05-16T04:06:42.689Z,15.23
2018-05-16T04:09:10.655Z,15.18
2018-05-16T04:11:38.600Z,15.16
2018-05-16T04:14:06.509Z,15.22
2018-05-16T04:16:34.465Z,15.16
2018-05-16T04:19:02.434Z,15.15
2018-05-16T04:21:30.356Z,15.16
2018-05-16T04:23:58.257Z,15.12
2018-05-16T04:26:26.180Z,15.25
2018-05-16T04:28:54.253Z,15.15
2018-05-16T04:31:22.031Z,14.99
2018-05-16T04:33:49.979Z,15.02
2018-05-16T04:36:17.904Z,15.08
2018-05-16T04:38:45.817Z,15.10
2018-05-16T04:41:13.743Z,15.03
2018-05-16T04:43:41.668Z,15.07
2018-05-16T04:46:09.603Z,15.29
2018-05-16T04:48:37.527Z,15.24
2018-05-16T04:51:05.451Z,15.36
2018-05-16T04:53:33.657Z,15.41
2018-05-16T04:56:01.571Z,15.57
2018-05-16T04:58:29.467Z,15.57
2018-05-16T05:00:57.451Z,15.54
2018-05-16T05:03:25.331Z,15.62
2018-05-16T05:05:53.265Z,15.65
2018-05-16T05:08:21.274Z,15.68
2018-05-16T05:10:49.187Z,15.61
2018-05-16T05:13:17.186Z,15.70
2018-05-16T05:15:45.110Z,15.84
2018-05-16T05:18:13.154Z,15.86
2018-05-16T05:20:41.271Z,15.88
2018-05-16T05:23:09.196Z,15.98
2018-05-16T05:25:37.136Z,15.99
2018-05-16T05:28:05.175Z,15.98
2018-05-16T05:30:33.103Z,15.89
2018-05-16T05:33:01.102Z,15.97
2018-05-16T05:35:29.031Z,16.05
2018-05-16T05:37:56.938Z,16.05
2018-05-16T05:40:24.924Z,16.15
2018-05-16T05:42:52.834Z,16.15
2018-05-16T05:45:20.805Z,16.15
2018-05-16T05:47:48.755Z,16.26
2018-05-16T05:50:16.694Z,16.34
2018-05-16T05:52:44.592Z,16.40
2018-05-16T05:55:12.541Z,16.49
2018-05-16T05:57:40.496Z,16.45
2018-05-16T06:00:08.448Z,16.60
2018-05-16T06:02:36.341Z,16.57
2018-05-16T06:05:04.283Z,16.70
2018-05-16T06:07:32.207Z,16.74
2018-05-16T06:10:00.184Z,16.74
2018-05-16T06:12:28.050Z,16.74
2018-05-16T06:14:55.982Z,16.77
2018-05-16T06:17:23.903Z,16.93
2018-05-16T06:19:51.938Z,16.98
2018-05-16T06:22:19.786Z,16.96
2018-05-16T06:24:47.705Z,17.10
2018-05-16T06:27:15.704Z,17.19
2018-05-16T06:29:43.748Z,17.20
2018-05-16T06:32:11.704Z,17.30
2018-05-16T06:34:39.629Z,17.44
2018-05-16T06:37:07.554Z,17.53
2018-05-16T06:39:36.348Z,17.55
2018-05-16T06:42:04.284Z,17.54
2018-05-16T06:44:32.233Z,17.67
2018-05-16T06:47:00.178Z,17.74
2018-05-16T06:49:28.111Z,17.68
2018-05-16T06:51:56.039Z,17.85
2018-05-16T06:54:23.974Z,18.11
2018-05-16T06:56:51.900Z,18.59
2018-05-16T06:59:19.846Z,19.00
2018-05-16T07:01:47.748Z,19.31
2018-05-16T07:04:15.692Z,19.48
2018-05-16T07:06:43.644Z,19.31
2018-05-16T07:09:11.509Z,19.51
2018-05-16T07:11:39.441Z,19.50
2018-05-16T07:14:07.366Z,19.61
2018-05-16T07:16:35.378Z,20.03
2018-05-16T07:19:03.273Z,20.30
2018-05-16T07:21:31.204Z,20.13
2018-05-16T07:23:59.108Z,20.22
2018-05-16T07:26:27.045Z,20.50
2018-05-16T07:28:55.237Z,20.28
2018-05-16T07:31:23.139Z,20.54
2018-05-16T07:33:51.081Z,20.76
2018-05-16T07:36:18.984Z,20.91
2018-05-16T07:38:46.937Z,21.09
2018-05-16T07:41:14.845Z,21.37
2018-05-16T07:43:42.750Z,21.10
2018-05-16T07:46:10.733Z,21.34
2018-05-16T07:48:38.619Z,21.72
2018-05-16T07:51:07.204Z,21.50
2018-05-16T07:53:35.613Z,21.65
2018-05-16T07:56:03.549Z,21.88
2018-05-16T07:58:31.474Z,22.18
2018-05-16T08:00:59.409Z,22.08
2018-05-16T08:03:27.315Z,22.69
2018-05-16T08:05:55.323Z,23.20
2018-05-16T08:08:23.285Z,22.98
2018-05-16T08:10:51.956Z,22.94
2018-05-16T08:13:19.868Z,23.29
2018-05-16T08:15:48.385Z,23.36
2018-05-16T08:18:16.291Z,23.77
2018-05-16T08:20:44.249Z,24.06
2018-05-16T08:23:12.147Z,23.95
2018-05-16T08:25:43.628Z,24.30
2018-05-16T08:28:11.521Z,24.55
2018-05-16T08:30:39.552Z,24.10
2018-05-16T08:33:07.479Z,24.18
2018-05-16T08:35:36.077Z,23.81
2018-05-16T08:38:04.067Z,23.13
2018-05-16T08:40:32.031Z,23.49
2018-05-16T08:42:59.998Z,23.26
2018-05-16T08:45:27.877Z,22.92
2018-05-16T08:47:55.823Z,22.71
2018-05-16T08:50:23.728Z,22.73
2018-05-16T08:52:51.678Z,22.38
2018-05-16T08:55:19.595Z,22.23
2018-05-16T08:57:47.534Z,21.88
2018-05-16T09:00:15.794Z,21.98
2018-05-16T09:02:43.679Z,21.97
2018-05-16T09:05:12.057Z,21.89
2018-05-16T09:07:40.011Z,21.89
2018-05-16T09:10:08.383Z,22.10
2018-05-16T09:12:36.293Z,22.17
2018-05-16T09:15:04.815Z,22.16
2018-05-16T09:17:32.749Z,22.04
2018-05-16T09:20:00.663Z,22.61
2018-05-16T09:22:28.595Z,22.62
2018-05-16T09:24:56.503Z,22.91
2018-05-16T09:27:24.424Z,22.95
2018-05-16T09:29:52.329Z,23.27
2018-05-16T09:32:20.252Z,23.97
2018-05-16T09:34:48.178Z,24.60
2018-05-16T09:37:16.244Z,24.78
2018-05-16T09:39:44.225Z,24.48
2018-05-16T09:42:12.174Z,24.21
2018-05-16T09:44:40.075Z,24.00
2018-05-16T09:47:07.995Z,23.61
2018-05-16T09:49:36.124Z,23.03
2018-05-16T09:52:04.368Z,22.84
2018-05-16T09:54:32.275Z,23.01
2018-05-16T09:57:00.194Z,23.03
2018-05-16T09:59:28.119Z,22.68
2018-05-16T10:01:56.052Z,22.34
2018-05-16T10:04:23.984Z,22.17
2018-05-16T10:06:51.898Z,21.60
2018-05-16T10:09:19.831Z,21.24
2018-05-16T10:11:47.745Z,21.90
2018-05-16T10:14:15.652Z,22.54
2018-05-16T10:16:43.581Z,22.85
2018-05-16T10:19:11.492Z,22.79
2018-05-16T10:21:39.434Z,23.06
2018-05-16T10:24:07.372Z,23.52
2018-05-16T10:26:35.273Z,23.39
2018-05-16T10:29:03.359Z,23.41
2018-05-16T10:31:31.340Z,23.37
2018-05-16T10:33:59.251Z,23.86
2018-05-16T10:36:27.203Z,23.17
2018-05-16T10:38:55.128Z,23.43
2018-05-16T10:41:23.043Z,23.75
2018-05-16T10:43:50.961Z,24.11
2018-05-16T10:46:18.876Z,23.86
2018-05-16T10:48:46.790Z,24.12
2018-05-16T10:51:14.894Z,23.96
2018-05-16T10:53:42.798Z,24.08
2018-05-16T10:56:10.740Z,24.42
2018-05-16T10:58:38.674Z,24.36
2018-05-16T11:01:06.666Z,24.87
2018-05-16T11:03:34.720Z,25.01
2018-05-16T11:06:02.655Z,24.84
2018-05-16T11:08:30.573Z,24.56
2018-05-16T11:10:58.499Z,24.62
2018-05-16T11:13:26.407Z,25.08
2018-05-16T11:15:54.352Z,24.98
2018-05-16T11:18:22.679Z,24.90
2018-05-16T11:20:50.600Z,24.23
2018-05-16T11:23:18.546Z,24.73
2018-05-16T11:25:46.470Z,24.63
2018-05-16T11:28:14.462Z,24.35
2018-05-16T11:30:42.361Z,24.06
2018-05-16T11:33:10.361Z,23.65
2018-05-16T11:35:38.346Z,23.26
2018-05-16T11:38:06.233Z,22.94
2018-05-16T11:40:34.165Z,22.99
2018-05-16T11:43:02.096Z,22.72
2018-05-16T11:45:30.019Z,22.57
2018-05-16T11:47:57.939Z,22.50
2018-05-16T11:50:25.859Z,22.62
2018-05-16T11:52:54.151Z,22.11
2018-05-16T11:55:22.071Z,21.97
2018-05-16T11:57:49.985Z,21.66
2018-05-16T12:00:17.923Z,21.57
2018-05-16T12:02:45.921Z,21.51
2018-05-16T12:05:13.771Z,21.44
2018-05-16T12:07:41.692Z,21.36
2018-05-16T12:10:09.617Z,21.45
2018-05-16T12:12:38.392Z,21.36
2018-05-16T12:15:06.290Z,21.31
2018-05-16T12:17:34.233Z,20.91
2018-05-16T12:20:02.146Z,21.20
2018-05-16T12:22:30.068Z,21.16
2018-05-16T12:24:57.987Z,21.31
2018-05-16T12:27:25.916Z,21.42
2018-05-16T12:29:53.854Z,21.13
2018-05-16T12:32:21.810Z,21.16
2018-05-16T12:34:49.883Z,21.15
2018-05-16T12:37:17.853Z,21.29
2018-05-16T12:39:45.780Z,21.20
2018-05-16T12:42:13.699Z,21.37
2018-05-16T12:44:41.658Z,21.28
2018-05-16T12:47:09.573Z,21.33
2018-05-16T12:49:37.494Z,21.46
2018-05-16T12:52:05.431Z,21.35
2018-05-16T12:54:33.345Z,21.61
2018-05-16T12:57:01.258Z,21.61
2018-05-16T12:59:29.167Z,21.31
2018-05-16T13:01:57.076Z,21.51
2018-05-16T13:04:25.034Z,21.68
2018-05-16T13:06:52.943Z,21.93
2018-05-16T13:09:20.876Z,21.91
2018-05-16T13:11:48.779Z,21.99
2018-05-16T13:14:16.723Z,22.02
2018-05-16T13:16:44.627Z,21.79
2018-05-16T13:19:12.551Z,21.85
2018-05-16T13:21:40.587Z,21.90
2018-05-16T13:24:08.412Z,22.10
2018-05-16T13:26:36.346Z,22.37
2018-05-16T13:29:04.307Z,22.25
2018-05-16T13:31:32.222Z,22.29
2018-05-16T13:34:00.169Z,22.34
2018-05-16T13:36:28.120Z,22.65
2018-05-16T13:38:56.036Z,23.08
2018-05-16T13:41:23.978Z,23.03
2018-05-16T13:43:51.896Z,23.38
2018-05-16T13:46:20.418Z,23.73
2018-05-16T13:48:48.498Z,23.72
2018-05-16T13:51:16.433Z,23.38
2018-05-16T13:53:44.352Z,23.23
2018-05-16T13:56:12.475Z,23.25
2018-05-16T13:58:40.439Z,23.11
2018-05-16T14:01:08.412Z,22.99
2018-05-16T14:03:36.324Z,23.13
2018-05-16T14:06:04.289Z,23.11
2018-05-16T14:08:32.191Z,23.23
2018-05-16T14:11:00.104Z,23.37
2018-05-16T14:13:28.024Z,23.52
2018-05-16T14:15:55.943Z,23.88
2018-05-16T14:18:23.907Z,23.98
2018-05-16T14:20:51.856Z,24.31
2018-05-16T14:23:19.755Z,24.30
2018-05-16T14:25:47.696Z,24.39
2018-05-16T14:28:15.623Z,24.54
2018-05-16T14:30:43.578Z,24.72
2018-05-16T14:33:11.498Z,24.73
2018-05-16T14:35:39.436Z,24.41
2018-05-16T14:38:07.379Z,24.72
2018-05-16T14:40:35.300Z,24.86
2018-05-16T14:43:03.227Z,24.68
2018-05-16T14:45:31.246Z,24.71
2018-05-16T14:47:59.169Z,24.92
2018-05-16T14:50:27.579Z,24.87
2018-05-16T14:52:55.483Z,24.59
2018-05-16T14:55:23.444Z,24.30
2018-05-16T14:57:51.348Z,24.14
2018-05-16T15:00:19.287Z,23.85
2018-05-16T15:02:47.228Z,23.47
2018-05-16T15:05:15.145Z,23.25
2018-05-16T15:07:43.069Z,23.20
2018-05-16T15:10:11.087Z,23.12
2018-05-16T15:12:39.039Z,22.94
2018-05-16T15:15:06.929Z,22.81
2018-05-16T15:17:34.888Z,22.93
2018-05-16T15:20:02.881Z,22.90
2018-05-16T15:22:30.799Z,22.63
2018-05-16T15:24:59.150Z,22.67
2018-05-16T15:27:27.355Z,22.54
2018-05-16T15:29:55.324Z,22.62
2018-05-16T15:32:23.245Z,22.41
2018-05-16T15:34:51.171Z,22.36
2018-05-16T15:37:19.080Z,22.60
2018-05-16T15:39:47.012Z,22.60
2018-05-16T15:42:14.923Z,22.67
2018-05-16T15:44:42.919Z,22.64
2018-05-16T15:47:10.841Z,22.60
2018-05-16T15:49:39.758Z,22.58
2018-05-16T15:52:07.676Z,22.49
2018-05-16T15:54:35.605Z,22.70
2018-05-16T15:57:03.539Z,22.67
2018-05-16T15:59:31.463Z,22.73
2018-05-16T16:01:59.377Z,22.78
2018-05-16T16:04:27.327Z,22.63
2018-05-16T16:06:55.249Z,22.44
2018-05-16T16:09:23.180Z,22.35
2018-05-16T16:11:51.095Z,22.50
2018-05-16T16:14:19.023Z,22.46
2018-05-16T16:16:46.920Z,22.46
2018-05-16T16:19:14.875Z,22.26
2018-05-16T16:21:42.775Z,22.21
2018-05-16T16:24:10.677Z,22.08
2018-05-16T16:26:38.635Z,22.01
2018-05-16T16:29:06.588Z,21.91
2018-05-16T16:31:34.555Z,21.94
2018-05-16T16:34:02.455Z,21.84
2018-05-16T16:36:30.375Z,21.79
2018-05-16T16:38:58.324Z,21.55
2018-05-16T16:41:26.226Z,21.31
2018-05-16T16:43:54.145Z,21.00
2018-05-16T16:46:22.055Z,21.06
2018-05-16T16:48:50.019Z,21.22
2018-05-16T16:51:19.080Z,21.27
2018-05-16T16:53:47.023Z,21.34
2018-05-16T16:56:14.975Z,21.34
2018-05-16T16:58:42.888Z,21.32
2018-05-16T17:01:10.804Z,21.30
2018-05-16T17:03:39.093Z,21.24
2018-05-16T17:06:07.071Z,21.17
2018-05-16T17:08:35.080Z,21.00
2018-05-16T17:11:02.971Z,20.95
2018-05-16T17:13:30.898Z,21.11
2018-05-16T17:15:58.805Z,21.07
2018-05-16T17:18:26.751Z,20.95
2018-05-16T17:20:54.707Z,21.02
2018-05-16T17:23:23.363Z,20.98
2018-05-16T17:25:51.595Z,21.01
2018-05-16T17:28:20.262Z,20.86
2018-05-16T17:30:48.283Z,20.72
2018-05-16T17:33:16.721Z,20.69
2018-05-16T17:35:45.266Z,20.75
2018-05-16T17:38:13.227Z,20.83
2018-05-16T17:40:41.276Z,20.58
2018-05-16T17:43:09.253Z,20.53
2018-05-16T17:45:37.214Z,20.57
2018-05-16T17:48:05.244Z,20.54
2018-05-16T17:50:33.188Z,20.63
2018-05-16T17:53:01.085Z,20.57
2018-05-16T17:55:29.479Z,20.81
2018-05-16T17:57:57.883Z,20.69
2018-05-16T18:00:26.273Z,20.50
2018-05-16T18:02:54.201Z,20.53
2018-05-16T18:05:22.099Z,20.33
2018-05-16T18:07:50.047Z,20.50
2018-05-16T18:10:17.983Z,20.44
2018-05-16T18:12:47.535Z,20.50
2018-05-16T18:15:27.404Z,20.42
2018-05-16T18:17:55.320Z,20.31
2018-05-16T18:20:23.423Z,20.35
2018-05-16T18:22:51.423Z,20.31
2018-05-16T18:25:19.415Z,20.19
2018-05-16T18:27:47.356Z,20.35
2018-05-16T18:30:15.287Z,20.30
2018-05-16T18:32:43.713Z,20.37
2018-05-16T18:35:11.622Z,20.37
2018-05-16T18:37:39.528Z,20.32
2018-05-16T18:40:07.439Z,20.22
2018-05-16T18:42:35.518Z,20.18
2018-05-16T18:45:03.325Z,20.05
2018-05-16T18:47:31.242Z,19.96
2018-05-16T18:49:59.184Z,19.92
2018-05-16T18:52:27.105Z,19.91
2018-05-16T18:54:55.148Z,19.79
2018-05-16T18:57:23.696Z,19.76
2018-05-16T18:59:51.631Z,19.74
2018-05-16T19:02:19.565Z,19.90
2018-05-16T19:04:47.786Z,20.00
2018-05-16T19:07:15.717Z,19.83
2018-05-16T19:09:43.942Z,19.95
2018-05-16T19:12:11.876Z,19.82
2018-05-16T19:14:39.884Z,19.84
2018-05-16T19:17:07.797Z,19.81
2018-05-16T19:19:36.533Z,19.63
2018-05-16T19:22:04.473Z,19.61
2018-05-16T19:24:32.901Z,19.58
2018-05-16T19:27:01.017Z,19.72
2018-05-16T19:29:28.856Z,19.51
2018-05-16T19:31:56.789Z,19.48
2018-05-16T19:34:24.707Z,19.46
2018-05-16T19:36:52.642Z,19.62
2018-05-16T19:39:20.549Z,19.35
2018-05-16T19:41:48.503Z,19.40
2018-05-16T19:44:16.791Z,19.39
2018-05-16T19:46:44.709Z,19.54
2018-05-16T19:49:12.763Z,19.37
2018-05-16T19:51:40.687Z,19.07
2018-05-16T19:54:08.615Z,19.03
2018-05-16T19:56:36.537Z,18.99
2018-05-16T19:59:04.461Z,18.95
2018-05-16T20:01:32.436Z,19.12
2018-05-16T20:04:00.368Z,19.00
2018-05-16T20:06:28.423Z,18.97
2018-05-16T20:08:56.378Z,19.09
2018-05-16T20:11:24.298Z,19.02
2018-05-16T20:13:52.261Z,18.81
2018-05-16T20:16:20.199Z,18.69
2018-05-16T20:18:48.149Z,18.81
2018-05-16T20:21:16.061Z,18.93
2018-05-16T20:23:44.160Z,18.79
2018-05-16T20:26:12.000Z,18.80
2018-05-16T20:28:40.032Z,18.97
2018-05-16T20:31:08.015Z,18.81
2018-05-16T20:33:35.937Z,18.82
2018-05-16T20:36:03.879Z,18.73
2018-05-16T20:38:31.829Z,18.44
2018-05-16T20:40:59.753Z,18.50
2018-05-16T20:43:27.704Z,18.54
2018-05-16T20:45:55.666Z,18.66
2018-05-16T20:48:23.625Z,18.66
2018-05-16T20:50:51.545Z,18.51
2018-05-16T20:53:19.476Z,18.52
2018-05-16T20:55:47.392Z,18.54
2018-05-16T20:58:15.336Z,18.73
2018-05-16T21:00:43.270Z,18.44
2018-05-16T21:03:11.189Z,18.63
2018-05-16T21:05:39.120Z,18.40
2018-05-16T21:08:07.198Z,18.32
2018-05-16T21:10:35.124Z,18.35
2018-05-16T21:13:03.231Z,18.29
2018-05-16T21:15:31.140Z,18.15
2018-05-16T21:17:59.064Z,18.10
2018-05-16T21:20:27.006Z,18.17
2018-05-16T21:22:54.916Z,18.20
2018-05-16T21:25:22.860Z,18.14
2018-05-16T21:27:50.832Z,18.05
2018-05-16T21:30:18.768Z,18.05
2018-05-16T21:32:46.687Z,18.09
2018-05-16T21:35:14.766Z,18.17
2018-05-16T21:37:42.692Z,18.28
2018-05-16T21:40:10.630Z,18.28
2018-05-16T21:42:38.563Z,18.20
2018-05-16T21:45:06.496Z,18.25
2018-05-16T21:47:34.429Z,18.25
2018-05-16T21:50:02.340Z,18.27
2018-05-16T21:52:30.262Z,18.21
2018-05-16T21:54:58.187Z,18.32
2018-05-16T21:57:26.083Z,18.23
2018-05-16T21:59:54.013Z,18.23
2018-05-16T22:02:21.960Z,18.23
2018-05-16T22:04:49.868Z,18.29
2018-05-16T22:07:17.789Z,18.21
2018-05-16T22:09:45.697Z,18.25
2018-05-16T22:12:13.627Z,18.29
2018-05-16T22:14:41.577Z,18.36
2018-05-16T22:17:09.506Z,18.28
2018-05-16T22:19:37.507Z,18.19
2018-05-16T22:22:05.373Z,18.26
2018-05-16T22:24:33.281Z,18.22
2018-05-16T22:27:01.199Z,18.07
2018-05-16T22:29:29.123Z,18.08
2018-05-16T22:32:02.807Z,18.13
2018-05-16T22:34:36.408Z,18.03
2018-05-16T22:37:10.059Z,17.91
2018-05-16T22:39:43.714Z,17.96
2018-05-16T22:42:17.465Z,17.85
2018-05-16T22:44:48.116Z,17.93
2018-05-16T22:47:16.062Z,17.81
2018-05-16T22:49:43.978Z,17.75
2018-05-16T22:52:11.885Z,17.79
2018-05-16T22:54:39.821Z,17.72
2018-05-16T22:57:07.713Z,17.79
2018-05-16T22:59:35.648Z,17.68
2018-05-16T23:02:03.739Z,17.73
2018-05-16T23:04:31.649Z,17.79
2018-05-16T23:07:00.036Z,17.72
2018-05-16T23:09:27.963Z,17.68
2018-05-16T23:11:55.899Z,17.69
2018-05-16T23:14:23.815Z,17.60
2018-05-16T23:16:51.753Z,17.70
2018-05-16T23:19:19.675Z,17.67
2018-05-16T23:21:47.581Z,17.68
2018-05-16T23:24:15.492Z,17.66
2018-05-16T23:26:43.716Z,17.58
2018-05-16T23:29:11.637Z,17.53
2018-05-16T23:31:39.546Z,17.59
2018-05-16T23:34:07.489Z,17.46
2018-05-16T23:36:35.409Z,17.31
2018-05-16T23:39:03.397Z,17.19
2018-05-16T23:41:31.284Z,17.11
2018-05-16T23:43:59.200Z,17.06
2018-05-16T23:46:27.115Z,17.04
2018-05-16T23:48:55.050Z,17.05
2018-05-16T23:51:22.939Z,16.90
2018-05-16T23:53:50.880Z,16.88
2018-05-16T23:56:18.794Z,16.79
2018-05-16T23:58:46.699Z,16.72
